Capetan Vassilis — C6S2085 — position and weather

sailwx.info

Track history (hours):
 
Tides and Currents Weather Stations Pressure Air Temp Water Temp Dewpoint Dewpoint Depression Visibility Wind Speed Wind Dir Waves Ship Positions

Capetan Vassilis

Last reported at 2014-Oct-16 17:14 UTC. Time now 2014-Oct-20 04:27 UTC.
Position N 36°43' W 030°50'.

Length 191 m; draft 10.7 m.

MMSI: 311552000.

Date/timePositionNaut miles runAvg speedWind from/ knotsBaromVisibWave heightAir tempDewpointWater temp
2014-Oct-16 17:14N 36°43' W 030°50'15 8.8
2014-Oct-16 15:33N 36°42' W 030°32'12 8.8
2014-Oct-16 14:14N 36°42' W 030°17'16 9.0
2014-Oct-16 12:26N 36°42' W 029°57'11 9.0
2014-Oct-16 11:14N 36°41' W 029°44'156 9.9
2014-Oct-15 19:32N 36°35' W 026°30'1010.5
2014-Oct-15 18:33N 36°34' W 026°17'1110.8
2014-Oct-15 17:34N 36°33' W 026°03'1110.8
2014-Oct-15 16:33N 36°33' W 025°50'1110.9
2014-Oct-15 15:33N 36°33' W 025°36'1110.7
2014-Oct-15 14:33N 36°33' W 025°23'1110.6
2014-Oct-15 13:33N 36°32' W 025°10'1110.7
2014-Oct-15 12:33N 36°32' W 024°57'1010.5
2014-Oct-15 11:33N 36°32' W 024°44'1110.7
2014-Oct-15 10:33N 36°31' W 024°30'1110.9
2014-Oct-15 09:33N 36°31' W 024°17'1110.7
2014-Oct-15 08:33N 36°30' W 024°04'1110.5
2014-Oct-15 07:33N 36°30' W 023°51'1110.6
2014-Oct-15 06:30N 36°30' W 023°37'  
2014-Oct-11 15:32N 36°06' W 005°24'9 1.4
2014-Oct-11 09:14N 36°05' W 005°13'1 1.0
2014-Oct-11 08:13N 36°06' W 005°14'  
2014-Oct-08 10:12N 37°13' W 001°26'1214.4
2014-Oct-08 09:21N 37°14' W 001°11'1113.8
2014-Oct-08 08:32N 37°14' W 000°56'2013.9
2014-Oct-08 07:05N 37°15' W 000°31'713.5
2014-Oct-08 06:33N 37°16' W 000°22'1313.4
2014-Oct-08 05:33N 37°16' W 000°05'1313.2
2014-Oct-08 04:33N 37°17' E 000°11'1313.2
2014-Oct-08 03:33N 37°18' E 000°28'1313.2
2014-Oct-08 02:31N 37°19' E 000°45'1313.4
2014-Oct-08 01:32N 37°20' E 001°01'1313.4
2014-Oct-08 00:32N 37°20' E 001°18'1313.1
2014-Oct-07 23:33N 37°21' E 001°34'1313.2
2014-Oct-07 22:33N 37°22' E 001°51'1713.4
2014-Oct-07 21:19N 37°23' E 002°12'1013.4
2014-Oct-07 20:33N 37°24' E 002°25'1613.3
2014-Oct-07 19:22N 37°25' E 002°45'4013.1
2014-Oct-07 16:18N 37°27' E 003°35'1112.9
2014-Oct-07 15:26N 37°28' E 003°49'1212.5
2014-Oct-07 14:30N 37°29' E 004°04'2812.6
2014-Oct-07 12:17N 37°30' E 004°39'1613.0
2014-Oct-07 11:04N 37°31' E 004°59'713.1
2014-Oct-07 10:33N 37°32' E 005°07'15712.9
2014-Oct-06 22:22N 37°41' E 008°25'2413.2
2014-Oct-06 20:33N 37°43' E 008°56'  
Track history (hours):
 
Tides and Currents Weather Stations Pressure Air Temp Water Temp Dewpoint Dewpoint Depression Visibility Wind Speed Wind Dir Waves Ship Positions

Capetan Vassilis

Last reported at 2014-Oct-16 17:14 UTC. Time now 2014-Oct-20 04:27 UTC.
Position N 36°43' W 030°50'.

Length 191 m; draft 10.7 m.

MMSI: 311552000.

Date/timePositionNaut miles runAvg speedWind from/ knotsBaromVisibWave heightAir tempDewpointWater temp
2014-Oct-16 17:14N 36°43' W 030°50'15 8.8
2014-Oct-16 15:33N 36°42' W 030°32'12 8.8
2014-Oct-16 14:14N 36°42' W 030°17'16 9.0
2014-Oct-16 12:26N 36°42' W 029°57'11 9.0
2014-Oct-16 11:14N 36°41' W 029°44'156 9.9
2014-Oct-15 19:32N 36°35' W 026°30'1010.5
2014-Oct-15 18:33N 36°34' W 026°17'1110.8
2014-Oct-15 17:34N 36°33' W 026°03'1110.8
2014-Oct-15 16:33N 36°33' W 025°50'1110.9
2014-Oct-15 15:33N 36°33' W 025°36'1110.7
2014-Oct-15 14:33N 36°33' W 025°23'1110.6
2014-Oct-15 13:33N 36°32' W 025°10'1110.7
2014-Oct-15 12:33N 36°32' W 024°57'1010.5
2014-Oct-15 11:33N 36°32' W 024°44'1110.7
2014-Oct-15 10:33N 36°31' W 024°30'1110.9
2014-Oct-15 09:33N 36°31' W 024°17'1110.7
2014-Oct-15 08:33N 36°30' W 024°04'1110.5
2014-Oct-15 07:33N 36°30' W 023°51'1110.6
2014-Oct-15 06:30N 36°30' W 023°37'  
2014-Oct-11 15:32N 36°06' W 005°24'9 1.4
2014-Oct-11 09:14N 36°05' W 005°13'1 1.0
2014-Oct-11 08:13N 36°06' W 005°14'  
2014-Oct-08 10:12N 37°13' W 001°26'1214.4
2014-Oct-08 09:21N 37°14' W 001°11'1113.8
2014-Oct-08 08:32N 37°14' W 000°56'2013.9
2014-Oct-08 07:05N 37°15' W 000°31'713.5
2014-Oct-08 06:33N 37°16' W 000°22'1313.4
2014-Oct-08 05:33N 37°16' W 000°05'1313.2
2014-Oct-08 04:33N 37°17' E 000°11'1313.2
2014-Oct-08 03:33N 37°18' E 000°28'1313.2
2014-Oct-08 02:31N 37°19' E 000°45'1313.4
2014-Oct-08 01:32N 37°20' E 001°01'1313.4
2014-Oct-08 00:32N 37°20' E 001°18'1313.1
2014-Oct-07 23:33N 37°21' E 001°34'1313.2
2014-Oct-07 22:33N 37°22' E 001°51'1713.4
2014-Oct-07 21:19N 37°23' E 002°12'1013.4
2014-Oct-07 20:33N 37°24' E 002°25'1613.3
2014-Oct-07 19:22N 37°25' E 002°45'4013.1
2014-Oct-07 16:18N 37°27' E 003°35'1112.9
2014-Oct-07 15:26N 37°28' E 003°49'1212.5
2014-Oct-07 14:30N 37°29' E 004°04'2812.6
2014-Oct-07 12:17N 37°30' E 004°39'1613.0
2014-Oct-07 11:04N 37°31' E 004°59'713.1
2014-Oct-07 10:33N 37°32' E 005°07'15712.9
2014-Oct-06 22:22N 37°41' E 008°25'2413.2
2014-Oct-06 20:33N 37°43' E 008°56'  

Dump ship's entire track history